Station History

Weather Underground - logo

Station Historical Data
 
Daily Summary for August 20, 2018 Units:  Both    English   Metric
« Previous Day
Next Day »
Daily Weekly Monthly Yearly Custom
  Current: High: Low: Average:
Temperature: 83.8 °F /  28.8 °C 83.8 °F /  28.8 °C 66 °F /  18.9 °C 70.6 °F /  21.4 °C
Dew Point: 60.8 °F /  16 °C 61.4 °F /  16.3 °C 54.8 °F /  12.7 °C 57.9 °F /  14.4 °C
Humidity: 46 % 74 % 45 % 65 %
Wind Speed: 1.2 mph /  1.9 km/h 2.3 mph /  3.7 km/h - 0.3 mph /  0.5 km/h
Wind Gust: 0.3 mph /  0.5 km/h 1.3 mph /  2.1 km/h - -
Wind:SE - - SE
Pressure: 29.82 in /  1009.7 hPa 29.82 in /  1009.7 hPa 29.75 in /  1007.3 hPa -
Precipitation: 0 in /  0 mm      
Historical Graphs
 
 
Tabular Data for August 20, 2018
Time Temperature Dew Point Pressure Wind Wind Speed Wind Gust Humidity Rainfall Rate (Hourly)
00:04 77.6 °F /  25.3 °C 60.7 °F /  15.9 °C 29.75 in /  1007.3 hPa Calm     56 % 0 in /  0 mm
00:09 76.8 °F /  24.9 °C 60.4 °F /  15.8 °C 29.75 in /  1007.3 hPa Calm     57 % 0 in /  0 mm
00:14 75.8 °F /  24.3 °C 60.4 °F /  15.8 °C 29.76 in /  1007.7 hPa Calm     59 % 0 in /  0 mm
00:19 74.9 °F /  23.8 °C 60.5 °F /  15.8 °C 29.76 in /  1007.7 hPa Calm     61 % 0 in /  0 mm
00:24 74.3 °F /  23.5 °C 60 °F /  15.6 °C 29.76 in /  1007.7 hPa Calm     61 % 0 in /  0 mm
00:29 73.9 °F /  23.3 °C 60.1 °F /  15.6 °C 29.76 in /  1007.7 hPa Calm     62 % 0 in /  0 mm
00:34 73.5 °F /  23.1 °C 61 °F /  16.1 °C 29.76 in /  1007.7 hPa Calm     65 % 0 in /  0 mm
00:39 73.1 °F /  22.8 °C 60.2 °F /  15.7 °C 29.76 in /  1007.7 hPa Calm     64 % 0 in /  0 mm
00:44 72.7 °F /  22.6 °C 59.8 °F /  15.4 °C 29.76 in /  1007.7 hPa Calm     64 % 0 in /  0 mm
00:49 72.3 °F /  22.4 °C 59.4 °F /  15.2 °C 29.76 in /  1007.7 hPa Calm     64 % 0 in /  0 mm
00:54 72.1 °F /  22.3 °C 60.1 °F /  15.6 °C 29.76 in /  1007.7 hPa Calm     66 % 0 in /  0 mm
00:59 71.8 °F /  22.1 °C 60.2 °F /  15.7 °C 29.76 in /  1007.7 hPa Calm     67 % 0 in /  0 mm
01:04 71.6 °F /  22 °C 60.1 °F /  15.6 °C 29.75 in /  1007.3 hPa Calm     67 % 0 in /  0 mm
01:09 71.4 °F /  21.9 °C 59.9 °F /  15.5 °C 29.75 in /  1007.3 hPa Calm     67 % 0 in /  0 mm
01:14 71.3 °F /  21.8 °C 60.6 °F /  15.9 °C 29.75 in /  1007.3 hPa Calm     69 % 0 in /  0 mm
01:19 71.1 °F /  21.7 °C 60.4 °F /  15.8 °C 29.75 in /  1007.3 hPa Calm     69 % 0 in /  0 mm
01:24 70.9 °F /  21.6 °C 61.4 °F /  16.3 °C 29.75 in /  1007.3 hPa Calm     72 % 0 in /  0 mm
01:29 70.7 °F /  21.5 °C 60.8 °F /  16 °C 29.75 in /  1007.3 hPa Calm     71 % 0 in /  0 mm
01:34 70.5 °F /  21.4 °C 61 °F /  16.1 °C 29.75 in /  1007.3 hPa Calm     72 % 0 in /  0 mm
01:39 70.2 °F /  21.2 °C 61.1 °F /  16.2 °C 29.75 in /  1007.3 hPa Calm     73 % 0 in /  0 mm
01:44 69.8 °F /  21 °C 60.8 °F /  16 °C 29.75 in /  1007.3 hPa SE 1.2 mph /  1.9 km/h   73 % 0 in /  0 mm
01:49 69.6 °F /  20.9 °C 60.6 °F /  15.9 °C 29.75 in /  1007.3 hPa Calm   0.1 mph /  0.2 km/h 73 % 0 in /  0 mm
01:54 69.3 °F /  20.7 °C 60.3 °F /  15.7 °C 29.75 in /  1007.3 hPa Calm     73 % 0 in /  0 mm
01:59 69.2 °F /  20.7 °C 60.6 °F /  15.9 °C 29.75 in /  1007.3 hPa Calm     74 % 0 in /  0 mm
02:04 69 °F /  20.6 °C 60.4 °F /  15.8 °C 29.76 in /  1007.7 hPa Calm     74 % 0 in /  0 mm
02:09 68.8 °F /  20.4 °C 60.2 °F /  15.7 °C 29.76 in /  1007.7 hPa Calm     74 % 0 in /  0 mm
02:14 68.7 °F /  20.4 °C 60.1 °F /  15.6 °C 29.76 in /  1007.7 hPa Calm     74 % 0 in /  0 mm
02:19 68.7 °F /  20.4 °C 60.1 °F /  15.6 °C 29.76 in /  1007.7 hPa Calm   0.1 mph /  0.2 km/h 74 % 0 in /  0 mm
02:24 68.7 °F /  20.4 °C 59.7 °F /  15.4 °C 29.76 in /  1007.7 hPa SE 1.2 mph /  1.9 km/h   73 % 0 in /  0 mm
02:29 68.6 °F /  20.3 °C 59.6 °F /  15.3 °C 29.76 in /  1007.7 hPa Calm     73 % 0 in /  0 mm
02:34 68.5 °F /  20.3 °C 59.1 °F /  15.1 °C 29.76 in /  1007.7 hPa SE 1.2 mph /  1.9 km/h   72 % 0 in /  0 mm
02:39 68.5 °F /  20.3 °C 58.3 °F /  14.6 °C 29.76 in /  1007.7 hPa Calm     70 % 0 in /  0 mm
02:44 68.5 °F /  20.3 °C 58.3 °F /  14.6 °C 29.76 in /  1007.7 hPa Calm     70 % 0 in /  0 mm
02:49 68.4 °F /  20.2 °C 58.2 °F /  14.6 °C 29.77 in /  1008 hPa Calm     70 % 0 in /  0 mm
02:54 68.4 °F /  20.2 °C 58.2 °F /  14.6 °C 29.77 in /  1008 hPa SE 1.2 mph /  1.9 km/h   70 % 0 in /  0 mm
02:59 68.3 °F /  20.2 °C 58.1 °F /  14.5 °C 29.77 in /  1008 hPa Calm     70 % 0 in /  0 mm
03:04 68.3 °F /  20.2 °C 58.1 °F /  14.5 °C 29.77 in /  1008 hPa Calm     70 % 0 in /  0 mm
03:09 68.3 °F /  20.2 °C 58.1 °F /  14.5 °C 29.77 in /  1008 hPa Calm     70 % 0 in /  0 mm
03:14 68.3 °F /  20.2 °C 58.5 °F /  14.7 °C 29.77 in /  1008 hPa Calm     71 % 0 in /  0 mm
03:19 68.2 °F /  20.1 °C 58 °F /  14.4 °C 29.77 in /  1008 hPa Calm     70 % 0 in /  0 mm
03:24 68.1 °F /  20.1 °C 57.9 °F /  14.4 °C 29.77 in /  1008 hPa Calm     70 % 0 in /  0 mm
03:29 68.1 °F /  20.1 °C 58.3 °F /  14.6 °C 29.77 in /  1008 hPa Calm     71 % 0 in /  0 mm
03:34 68 °F /  20 °C 57.8 °F /  14.3 °C 29.77 in /  1008 hPa Calm     70 % 0 in /  0 mm
03:39 67.8 °F /  19.9 °C 57.7 °F /  14.3 °C 29.77 in /  1008 hPa Calm     70 % 0 in /  0 mm
03:44 67.7 °F /  19.8 °C 57.6 °F /  14.2 °C 29.77 in /  1008 hPa Calm     70 % 0 in /  0 mm
03:49 67.6 °F /  19.8 °C 57.5 °F /  14.2 °C 29.77 in /  1008 hPa Calm     70 % 0 in /  0 mm
03:54 67.6 °F /  19.8 °C 56.7 °F /  13.7 °C 29.77 in /  1008 hPa Calm     68 % 0 in /  0 mm
03:59 67.7 °F /  19.8 °C 56.8 °F /  13.8 °C 29.77 in /  1008 hPa Calm     68 % 0 in /  0 mm
04:04 67.6 °F /  19.8 °C 56.7 °F /  13.7 °C 29.77 in /  1008 hPa Calm     68 % 0 in /  0 mm
04:09 67.4 °F /  19.7 °C 56.5 °F /  13.6 °C 29.77 in /  1008 hPa Calm     68 % 0 in /  0 mm
04:14 67.3 °F /  19.6 °C 56.8 °F /  13.8 °C 29.77 in /  1008 hPa Calm     69 % 0 in /  0 mm
04:19 67.1 °F /  19.5 °C 57 °F /  13.9 °C 29.77 in /  1008 hPa Calm     70 % 0 in /  0 mm
04:24 66.9 °F /  19.4 °C 56.4 °F /  13.6 °C 29.77 in /  1008 hPa Calm     69 % 0 in /  0 mm
04:29 66.9 °F /  19.4 °C 56.4 °F /  13.6 °C 29.77 in /  1008 hPa Calm     69 % 0 in /  0 mm
04:34 66.8 °F /  19.3 °C 56.3 °F /  13.5 °C 29.77 in /  1008 hPa Calm     69 % 0 in /  0 mm
04:39 66.7 °F /  19.3 °C 56.6 °F /  13.7 °C 29.77 in /  1008 hPa Calm     70 % 0 in /  0 mm
04:44 66.6 °F /  19.2 °C 56.1 °F /  13.4 °C 29.77 in /  1008 hPa SE 1.2 mph /  1.9 km/h   69 % 0 in /  0 mm
04:49 66.7 °F /  19.3 °C 55.8 °F /  13.2 °C 29.77 in /  1008 hPa Calm     68 % 0 in /  0 mm
04:54 66.9 °F /  19.4 °C 56 °F /  13.3 °C 29.77 in /  1008 hPa ESE 1.2 mph /  1.9 km/h 0.1 mph /  0.2 km/h 68 % 0 in /  0 mm
04:59 67 °F /  19.4 °C 56.1 °F /  13.4 °C 29.77 in /  1008 hPa ESE 1.2 mph /  1.9 km/h   68 % 0 in /  0 mm
05:04 66.9 °F /  19.4 °C 56 °F /  13.3 °C 29.78 in /  1008.4 hPa ESE 1.2 mph /  1.9 km/h 0.1 mph /  0.2 km/h 68 % 0 in /  0 mm
05:09 66.8 °F /  19.3 °C 55.9 °F /  13.3 °C 29.78 in /  1008.4 hPa Calm     68 % 0 in /  0 mm
05:14 66.7 °F /  19.3 °C 55.8 °F /  13.2 °C 29.78 in /  1008.4 hPa Calm     68 % 0 in /  0 mm
05:19 66.7 °F /  19.3 °C 55.8 °F /  13.2 °C 29.78 in /  1008.4 hPa Calm     68 % 0 in /  0 mm
05:24 66.8 °F /  19.3 °C 55.5 °F /  13.1 °C 29.78 in /  1008.4 hPa ESE 1.2 mph /  1.9 km/h   67 % 0 in /  0 mm
05:29 67 °F /  19.4 °C 55.7 °F /  13.2 °C 29.78 in /  1008.4 hPa ESE 1 mph /  1.6 km/h   67 % 0 in /  0 mm
05:34 67 °F /  19.4 °C 55.7 °F /  13.2 °C 29.78 in /  1008.4 hPa Calm     67 % 0 in /  0 mm
05:39 66.9 °F /  19.4 °C 55.6 °F /  13.1 °C 29.79 in /  1008.7 hPa Calm     67 % 0 in /  0 mm
05:44 66.7 °F /  19.3 °C 55.8 °F /  13.2 °C 29.79 in /  1008.7 hPa Calm     68 % 0 in /  0 mm
05:49 66.4 °F /  19.1 °C 55.5 °F /  13.1 °C 29.78 in /  1008.4 hPa Calm     68 % 0 in /  0 mm
05:54 66.2 °F /  19 °C 55.3 °F /  12.9 °C 29.79 in /  1008.7 hPa Calm     68 % 0 in /  0 mm
05:59 66.1 °F /  18.9 °C 55.2 °F /  12.9 °C 29.79 in /  1008.7 hPa Calm     68 % 0 in /  0 mm
06:04 66.2 °F /  19 °C 55.3 °F /  12.9 °C 29.79 in /  1008.7 hPa Calm     68 % 0 in /  0 mm
06:09 66.2 °F /  19 °C 55.3 °F /  12.9 °C 29.79 in /  1008.7 hPa Calm     68 % 0 in /  0 mm
06:14 66.2 °F /  19 °C 55.3 °F /  12.9 °C 29.80 in /  1009 hPa Calm     68 % 0 in /  0 mm
06:19 66.2 °F /  19 °C 55.3 °F /  12.9 °C 29.80 in /  1009 hPa ESE 1.2 mph /  1.9 km/h   68 % 0 in /  0 mm
06:24 66.1 °F /  18.9 °C 55.2 °F /  12.9 °C 29.80 in /  1009 hPa ESE 1.2 mph /  1.9 km/h   68 % 0 in /  0 mm
06:29 66 °F /  18.9 °C 55.1 °F /  12.8 °C 29.80 in /  1009 hPa ESE 1.2 mph /  1.9 km/h   68 % 0 in /  0 mm
06:34 66 °F /  18.9 °C 55.1 °F /  12.8 °C 29.80 in /  1009 hPa Calm     68 % 0 in /  0 mm
06:39 66 °F /  18.9 °C 55.1 °F /  12.8 °C 29.80 in /  1009 hPa Calm   0.1 mph /  0.2 km/h 68 % 0 in /  0 mm
06:44 66 °F /  18.9 °C 55.1 °F /  12.8 °C 29.80 in /  1009 hPa Calm     68 % 0 in /  0 mm
06:49 66 °F /  18.9 °C 55.1 °F /  12.8 °C 29.81 in /  1009.4 hPa Calm   0.1 mph /  0.2 km/h 68 % 0 in /  0 mm
06:54 66.1 °F /  18.9 °C 54.8 °F /  12.7 °C 29.81 in /  1009.4 hPa ESE 1.2 mph /  1.9 km/h   67 % 0 in /  0 mm
06:59 66.4 °F /  19.1 °C 55.1 °F /  12.8 °C 29.81 in /  1009.4 hPa ESE 1.2 mph /  1.9 km/h 0.1 mph /  0.2 km/h 67 % 0 in /  0 mm
07:04 66.7 °F /  19.3 °C 55 °F /  12.8 °C 29.81 in /  1009.4 hPa ESE 1.2 mph /  1.9 km/h   66 % 0 in /  0 mm
07:09 67 °F /  19.4 °C 54.8 °F /  12.7 °C 29.81 in /  1009.4 hPa Calm     65 % 0 in /  0 mm
07:14 67.3 °F /  19.6 °C 55.5 °F /  13.1 °C 29.81 in /  1009.4 hPa Calm     66 % 0 in /  0 mm
07:19 67.6 °F /  19.8 °C 55.8 °F /  13.2 °C 29.81 in /  1009.4 hPa Calm     66 % 0 in /  0 mm
07:24 67.9 °F /  19.9 °C 56.1 °F /  13.4 °C 29.81 in /  1009.4 hPa Calm     66 % 0 in /  0 mm
07:29 68.4 °F /  20.2 °C 56.2 °F /  13.4 °C 29.81 in /  1009.4 hPa Calm     65 % 0 in /  0 mm
07:34 69.1 °F /  20.6 °C 56.8 °F /  13.8 °C 29.82 in /  1009.7 hPa Calm     65 % 0 in /  0 mm
07:39 70.3 °F /  21.3 °C 57.1 °F /  13.9 °C 29.82 in /  1009.7 hPa SE 1.2 mph /  1.9 km/h   63 % 0 in /  0 mm
07:44 71.7 °F /  22.1 °C 57.5 °F /  14.2 °C 29.81 in /  1009.4 hPa Calm     61 % 0 in /  0 mm
07:49 72.9 °F /  22.7 °C 57.7 °F /  14.3 °C 29.82 in /  1009.7 hPa Calm     59 % 0 in /  0 mm
07:54 73.5 °F /  23.1 °C 57.3 °F /  14.1 °C 29.82 in /  1009.7 hPa Calm   0.1 mph /  0.2 km/h 57 % 0 in /  0 mm
07:59 73.9 °F /  23.3 °C 57.7 °F /  14.3 °C 29.81 in /  1009.4 hPa ESE 1.2 mph /  1.9 km/h   57 % 0 in /  0 mm
08:04 74.5 °F /  23.6 °C 58.3 °F /  14.6 °C 29.81 in /  1009.4 hPa ESE 1.2 mph /  1.9 km/h   57 % 0 in /  0 mm
08:09 75.4 °F /  24.1 °C 58.1 °F /  14.5 °C 29.82 in /  1009.7 hPa Calm     55 % 0 in /  0 mm
08:14 76.3 °F /  24.6 °C 58.9 °F /  14.9 °C 29.82 in /  1009.7 hPa Calm     55 % 0 in /  0 mm
08:19 77 °F /  25 °C 58.6 °F /  14.8 °C 29.82 in /  1009.7 hPa Calm     53 % 0 in /  0 mm
08:24 78.1 °F /  25.6 °C 59.6 °F /  15.3 °C 29.82 in /  1009.7 hPa Calm     53 % 0 in /  0 mm
08:29 79.2 °F /  26.2 °C 59.5 °F /  15.3 °C 29.82 in /  1009.7 hPa SSE 1.2 mph /  1.9 km/h   51 % 0 in /  0 mm
08:34 79.4 °F /  26.3 °C 58.6 °F /  14.8 °C 29.82 in /  1009.7 hPa Calm     49 % 0 in /  0 mm
08:39 79.8 °F /  26.6 °C 58.9 °F /  14.9 °C 29.82 in /  1009.7 hPa Calm     49 % 0 in /  0 mm
08:44 80.4 °F /  26.9 °C 60.1 °F /  15.6 °C 29.82 in /  1009.7 hPa Calm     50 % 0 in /  0 mm
08:49 81 °F /  27.2 °C 60 °F /  15.6 °C 29.82 in /  1009.7 hPa East 1.2 mph /  1.9 km/h 0.5 mph /  0.8 km/h 49 % 0 in /  0 mm
08:54 81.2 °F /  27.3 °C 59.1 °F /  15.1 °C 29.82 in /  1009.7 hPa SE 2.3 mph /  3.7 km/h 0.3 mph /  0.5 km/h 47 % 0 in /  0 mm
08:59 81.7 °F /  27.6 °C 58.9 °F /  14.9 °C 29.82 in /  1009.7 hPa Calm     46 % 0 in /  0 mm
09:04 82.1 °F /  27.8 °C 59.3 °F /  15.2 °C 29.82 in /  1009.7 hPa SSE 1.2 mph /  1.9 km/h   46 % 0 in /  0 mm
09:09 82.5 °F /  28.1 °C 59 °F /  15 °C 29.82 in /  1009.7 hPa ESE 2.3 mph /  3.7 km/h 1.3 mph /  2.1 km/h 45 % 0 in /  0 mm
09:14 82.5 °F /  28.1 °C 59.6 °F /  15.3 °C 29.82 in /  1009.7 hPa SE 1 mph /  1.6 km/h 0.1 mph /  0.2 km/h 46 % 0 in /  0 mm
09:19 82.9 °F /  28.3 °C 60 °F /  15.6 °C 29.82 in /  1009.7 hPa ESE 2.3 mph /  3.7 km/h 0.5 mph /  0.8 km/h 46 % 0 in /  0 mm
09:24 83.1 °F /  28.4 °C 60.2 °F /  15.7 °C 29.82 in /  1009.7 hPa SW 2 mph /  3.2 km/h 1 mph /  1.6 km/h 46 % 0 in /  0 mm
09:29 83.8 °F /  28.8 °C 60.8 °F /  16 °C 29.82 in /  1009.7 hPa SE 1.2 mph /  1.9 km/h 0.3 mph /  0.5 km/h 46 % 0 in /  0 mm
Park Place, Exeter, Tulare County, California, USA
Compliments of Weather Underground - 1.75 mb